Time,TemperatureF,DewpointF,PressureIn,WindDirection,WindDirectionDegrees,WindSpeedMPH,WindSpeedGustMPH,Humidity,HourlyPrecipIn,Conditions,Clouds,dailyrainin,SolarRadiationWatts/m^2,SoftwareType,DateUTC
2014-01-21 00:04:00,16.7,14.3,30.05,North,5,18.0,18.4,90,0.00,-SN,,0.00,0.0,WeatherDisplay:10.37,2014-01-21 06:04:00,
2014-01-21 00:07:00,16.7,14.3,30.05,North,5,18.0,18.4,90,0.00,-SN,,0.00,0.0,WeatherDisplay:10.37,2014-01-21 06:07:00,
2014-01-21 00:12:00,16.7,14.3,30.05,North,5,17.4,18.4,90,0.00,-SN,,0.00,0.0,WeatherDisplay:10.37,2014-01-21 06:12:00,
2014-01-21 00:17:00,16.7,14.3,30.06,NNW,348,12.2,23.0,90,0.00,-SN,,0.00,0.0,WeatherDisplay:10.37,2014-01-21 06:17:00,
2014-01-21 00:22:00,16.7,14.3,30.06,NNE,12,17.4,25.3,90,0.00,-SN,,0.00,0.0,WeatherDisplay:10.37,2014-01-21 06:22:00,
2014-01-21 00:27:00,16.7,14.3,30.06,North,5,15.1,19.6,90,0.00,-SN,,0.00,0.0,WeatherDisplay:10.37,2014-01-21 06:27:00,
2014-01-21 00:32:00,15.0,12.3,30.06,NNE,20,16.3,25.0,89,0.00,-SN,,0.00,0.0,WeatherDisplay:10.37,2014-01-21 06:32:00,
2014-01-21 00:37:00,14.7,12.0,30.06,North,355,15.8,19.6,89,0.00,-SN,,0.00,0.0,WeatherDisplay:10.37,2014-01-21 06:37:00,
2014-01-21 00:42:00,14.4,11.8,30.06,North,11,15.2,20.7,89,0.00,-SN,,0.00,0.0,WeatherDisplay:10.37,2014-01-21 06:42:00,
2014-01-21 00:47:00,14.3,11.9,30.07,North,355,18.0,26.5,90,0.00,-SN,,0.00,0.0,WeatherDisplay:10.37,2014-01-21 06:47:00,
2014-01-21 00:52:00,14.1,11.5,30.07,NNW,339,10.7,21.0,89,0.00,-SN,,0.00,0.0,WeatherDisplay:10.37,2014-01-21 06:52:00,
2014-01-21 00:57:00,13.9,11.3,30.07,North,5,20.3,29.9,89,0.00,-SN,,0.00,0.0,WeatherDisplay:10.37,2014-01-21 06:57:00,
2014-01-21 01:02:00,13.6,11.0,30.08,NNE,14,13.8,19.6,89,0.00,-SN,,0.00,0.0,WeatherDisplay:10.37,2014-01-21 07:02:00,
2014-01-21 01:07:00,13.5,10.9,30.08,NNE,21,16.1,19.6,89,0.00,-SN,,0.00,0.0,WeatherDisplay:10.37,2014-01-21 07:07:00,
2014-01-21 01:12:00,13.4,10.8,30.08,NNW,345,12.5,19.6,89,0.00,-SN,,0.00,0.0,WeatherDisplay:10.37,2014-01-21 07:12:00,
2014-01-21 01:17:00,13.2,10.6,30.08,NE,38,16.9,25.3,89,0.00,-SN,,0.00,0.0,WeatherDisplay:10.37,2014-01-21 07:17:00,
2014-01-21 01:22:00,13.0,10.1,30.09,NNE,16,14.5,19.6,88,0.00,-SN,,0.00,0.0,WeatherDisplay:10.37,2014-01-21 07:22:00,
2014-01-21 01:27:00,12.8,9.9,30.09,NNE,23,15.2,19.6,88,0.00,-SN,,0.00,0.0,WeatherDisplay:10.37,2014-01-21 07:27:00,
2014-01-21 01:32:00,12.7,9.8,30.09,North,5,13.5,17.3,88,0.00,-SN,,0.00,0.0,WeatherDisplay:10.37,2014-01-21 07:32:00,
2014-01-21 01:37:00,12.5,9.6,30.10,NNE,13,18.2,20.7,88,0.00,-SN,,0.00,0.0,WeatherDisplay:10.37,2014-01-21 07:37:00,
2014-01-21 01:42:00,12.3,9.2,30.10,NNE,12,12.4,18.4,87,0.00,-SN,,0.00,0.0,WeatherDisplay:10.37,2014-01-21 07:42:00,
2014-01-21 01:47:00,12.1,9.0,30.11,North,5,19.2,25.3,87,0.00,OVC,,0.00,0.0,WeatherDisplay:10.37,2014-01-21 07:47:00,
2014-01-21 01:52:00,11.9,8.8,30.11,NNW,343,16.8,23.0,87,0.00,OVC,,0.00,0.0,WeatherDisplay:10.37,2014-01-21 07:52:00,
2014-01-21 01:57:00,11.7,8.6,30.11,North,355,16.5,24.2,87,0.00,OVC,,0.00,0.0,WeatherDisplay:10.37,2014-01-21 07:57:00,
2014-01-21 02:02:00,11.6,8.5,30.12,North,360,13.3,17.3,87,0.00,OVC,,0.00,0.0,WeatherDisplay:10.37,2014-01-21 08:02:00,
2014-01-21 02:07:00,11.4,8.0,30.12,NNE,15,12.2,15.0,86,0.00,OVC,,0.00,0.0,WeatherDisplay:10.37,2014-01-21 08:07:00,
2014-01-21 02:12:00,11.2,7.8,30.13,North,360,16.2,23.0,86,0.00,OVC,,0.00,0.0,WeatherDisplay:10.37,2014-01-21 08:12:00,
2014-01-21 02:17:00,11.1,7.7,30.13,North,5,14.3,19.6,86,0.00,OVC,,0.00,0.0,WeatherDisplay:10.37,2014-01-21 08:17:00,
2014-01-21 02:22:00,11.0,7.6,30.13,NNW,343,9.2,16.0,86,0.00,OVC,,0.00,0.0,WeatherDisplay:10.37,2014-01-21 08:22:00,
2014-01-21 02:27:00,10.8,7.4,30.14,NNE,13,16.3,20.7,86,0.00,OVC,,0.00,0.0,WeatherDisplay:10.37,2014-01-21 08:27:00,
2014-01-21 02:32:00,10.7,7.3,30.14,North,5,13.2,19.6,86,0.00,OVC,,0.00,0.0,WeatherDisplay:10.37,2014-01-21 08:32:00,
2014-01-21 02:37:00,10.5,7.1,30.14,North,5,12.3,16.1,86,0.00,OVC,,0.00,0.0,WeatherDisplay:10.37,2014-01-21 08:37:00,
2014-01-21 02:42:00,10.3,6.7,30.15,NNE,30,13.5,18.4,85,0.00,OVC,,0.00,0.0,WeatherDisplay:10.37,2014-01-21 08:42:00,
2014-01-21 02:47:00,10.1,6.5,30.15,North,9,12.1,16.0,85,0.00,OVC,,0.00,0.0,WeatherDisplay:10.37,2014-01-21 08:47:00,
2014-01-21 02:52:00,9.9,6.3,30.16,North,355,16.5,26.5,85,0.00,OVC,,0.00,0.0,WeatherDisplay:10.37,2014-01-21 08:52:00,
2014-01-21 02:57:00,9.5,5.9,30.16,North,11,14.6,20.7,85,0.00,OVC,,0.00,0.0,WeatherDisplay:10.37,2014-01-21 08:57:00,
2014-01-21 03:02:00,9.3,5.7,30.16,NNE,16,14.7,19.6,85,0.00,OVC,,0.00,0.0,WeatherDisplay:10.37,2014-01-21 09:02:00,
2014-01-21 03:07:00,9.2,5.6,30.17,NNE,18,12.5,17.3,85,0.00,OVC,,0.00,0.0,WeatherDisplay:10.37,2014-01-21 09:07:00,
2014-01-21 03:12:00,9.2,5.3,30.17,North,355,10.8,16.1,84,0.00,OVC,,0.00,0.0,WeatherDisplay:10.37,2014-01-21 09:12:00,
2014-01-21 03:17:00,8.8,5.0,30.17,North,11,10.6,15.0,84,0.00,OVC,,0.00,0.0,WeatherDisplay:10.37,2014-01-21 09:17:00,
2014-01-21 03:22:00,8.5,4.7,30.18,North,350,11.6,17.3,84,0.00,OVC,,0.00,0.0,WeatherDisplay:10.37,2014-01-21 09:22:00,
2014-01-21 03:27:00,8.5,4.7,30.19,North,9,11.2,16.1,84,0.00,OVC,,0.00,0.0,WeatherDisplay:10.37,2014-01-21 09:27:00,
2014-01-21 03:32:00,8.5,4.7,30.19,North,355,7.0,12.0,84,0.00,OVC,,0.00,0.0,WeatherDisplay:10.37,2014-01-21 09:32:00,
2014-01-21 03:37:00,8.5,4.4,30.19,NNW,348,8.6,11.5,83,0.00,OVC,,0.00,0.0,WeatherDisplay:10.37,2014-01-21 09:37:00,
2014-01-21 03:42:00,8.3,4.2,30.20,NNW,344,11.9,16.1,83,0.00,OVC,,0.00,0.0,WeatherDisplay:10.37,2014-01-21 09:42:00,
2014-01-21 03:47:00,8.0,3.9,30.20,North,349,12.1,17.3,83,0.00,OVC,,0.00,0.0,WeatherDisplay:10.37,2014-01-21 09:47:00,
2014-01-21 03:52:00,7.8,3.4,30.20,North,355,13.4,16.1,82,0.00,OVC,,0.00,0.0,WeatherDisplay:10.37,2014-01-21 09:52:00,
2014-01-21 03:57:00,7.7,3.4,30.20,North,360,11.1,13.8,82,0.00,OVC,,0.00,0.0,WeatherDisplay:10.37,2014-01-21 09:57:00,
2014-01-21 04:02:00,7.5,2.9,30.20,North,360,10.7,16.1,81,0.00,OVC,,0.00,0.0,WeatherDisplay:10.37,2014-01-21 10:02:00,
2014-01-21 04:07:00,7.4,3.1,30.21,North,355,7.6,10.4,82,0.00,OVC,,0.00,0.0,WeatherDisplay:10.37,2014-01-21 10:07:00,
2014-01-21 04:12:00,7.3,2.7,30.21,NNW,346,9.6,16.1,81,0.00,OVC,,0.00,0.0,WeatherDisplay:10.37,2014-01-21 10:12:00,
2014-01-21 04:17:00,7.2,2.6,30.22,North,360,10.1,16.0,81,0.00,OVC,,0.00,0.0,WeatherDisplay:10.37,2014-01-21 10:17:00,
2014-01-21 04:22:00,7.0,2.4,30.22,North,360,8.2,13.8,81,0.00,OVC,,0.00,0.0,WeatherDisplay:10.37,2014-01-21 10:22:00,
2014-01-21 04:27:00,6.7,2.1,30.23,NNE,24,8.2,12.0,81,0.00,OVC,,0.00,0.0,WeatherDisplay:10.37,2014-01-21 10:27:00,
2014-01-21 04:32:00,6.4,1.5,30.23,North,360,9.5,15.0,80,0.00,OVC,,0.00,0.0,WeatherDisplay:10.37,2014-01-21 10:32:00,
2014-01-21 04:37:00,6.2,1.4,30.23,NNW,338,11.5,18.4,80,0.00,OVC,,0.00,0.0,WeatherDisplay:10.37,2014-01-21 10:37:00,
2014-01-21 04:42:00,6.1,1.3,30.23,North,351,9.4,13.8,80,0.00,OVC,,0.00,0.0,WeatherDisplay:10.37,2014-01-21 10:42:00,
2014-01-21 04:47:00,5.8,0.7,30.23,North,5,6.7,11.5,79,0.00,OVC,,0.00,0.0,WeatherDisplay:10.37,2014-01-21 10:47:00,
2014-01-21 04:52:00,5.5,0.4,30.23,North,355,8.2,11.5,79,0.00,OVC,,0.00,0.0,WeatherDisplay:10.37,2014-01-21 10:52:00,
2014-01-21 04:57:00,5.3,0.2,30.23,North,360,9.0,11.5,79,0.00,OVC,,0.00,0.0,WeatherDisplay:10.37,2014-01-21 10:57:00,
2014-01-21 05:02:00,5.1,0.0,30.24,North,355,8.8,12.7,79,0.00,OVC,,0.00,0.0,WeatherDisplay:10.37,2014-01-21 11:02:00,
2014-01-21 05:07:00,4.9,-0.5,30.24,NW,326,7.4,15.0,78,0.00,OVC,,0.00,0.0,WeatherDisplay:10.37,2014-01-21 11:07:00,
2014-01-21 05:12:00,4.7,-0.4,30.24,NNW,342,10.3,12.7,79,0.00,OVC,,0.00,0.0,WeatherDisplay:10.37,2014-01-21 11:12:00,
2014-01-21 05:17:00,4.6,-0.8,30.24,NNW,331,9.1,15.0,78,0.00,OVC,,0.00,0.0,WeatherDisplay:10.37,2014-01-21 11:17:00,
2014-01-21 05:22:00,4.5,-0.8,30.24,NNW,340,9.7,15.0,78,0.00,OVC,,0.00,0.0,WeatherDisplay:10.37,2014-01-21 11:22:00,
2014-01-21 05:27:00,4.4,-0.9,30.24,North,355,9.1,12.7,78,0.00,OVC,,0.00,0.0,WeatherDisplay:10.37,2014-01-21 11:27:00,
2014-01-21 05:32:00,4.2,-1.1,30.25,NNE,12,7.9,11.5,78,0.00,OVC,,0.00,0.0,WeatherDisplay:10.37,2014-01-21 11:32:00,
2014-01-21 05:37:00,4.1,-1.5,30.25,NNW,348,10.2,13.8,77,0.00,OVC,,0.00,0.0,WeatherDisplay:10.37,2014-01-21 11:37:00,
2014-01-21 05:42:00,4.0,-1.6,30.25,NW,323,6.9,14.0,77,0.00,OVC,,0.00,0.0,WeatherDisplay:10.37,2014-01-21 11:42:00,
2014-01-21 05:47:00,4.0,-1.6,30.25,North,350,8.8,12.7,77,0.00,OVC,,0.00,0.0,WeatherDisplay:10.37,2014-01-21 11:47:00,
2014-01-21 05:52:00,3.8,-1.8,30.25,North,355,8.1,12.7,77,0.00,OVC,,0.00,0.0,WeatherDisplay:10.37,2014-01-21 11:52:00,
2014-01-21 05:57:00,3.7,-2.2,30.26,North,355,6.6,12.0,76,0.00,OVC,,0.00,0.0,WeatherDisplay:10.37,2014-01-21 11:57:00,
2014-01-21 06:02:00,3.6,-2.0,30.26,North,355,7.2,11.5,77,0.00,CLR,,0.00,0.0,WeatherDisplay:10.37,2014-01-21 12:02:00,
2014-01-21 06:07:00,3.4,-2.2,30.26,NW,326,5.8,8.1,77,0.00,CLR,,0.00,0.0,WeatherDisplay:10.37,2014-01-21 12:07:00,
2014-01-21 06:12:00,3.3,-2.3,30.27,NNW,346,5.4,8.1,77,0.00,CLR,,0.00,0.0,WeatherDisplay:10.37,2014-01-21 12:12:00,
2014-01-21 06:17:00,3.1,-2.5,30.27,North,355,5.4,8.1,77,0.00,CLR,,0.00,0.0,WeatherDisplay:10.37,2014-01-21 12:17:00,
2014-01-21 06:22:00,3.1,-2.5,30.27,North,355,5.7,11.5,77,0.00,CLR,,0.00,0.0,WeatherDisplay:10.37,2014-01-21 12:22:00,
2014-01-21 06:27:00,3.0,-2.6,30.28,North,360,7.0,9.2,77,0.00,CLR,,0.00,0.0,WeatherDisplay:10.37,2014-01-21 12:27:00,
2014-01-21 06:32:00,2.9,-2.7,30.28,NNW,339,4.4,7.0,77,0.00,CLR,,0.00,0.0,WeatherDisplay:10.37,2014-01-21 12:32:00,
2014-01-21 06:37:00,2.9,-2.4,30.28,North,9,7.6,10.4,78,0.00,CLR,,0.00,0.0,WeatherDisplay:10.37,2014-01-21 12:37:00,
2014-01-21 06:42:00,2.9,-2.4,30.28,North,355,9.0,14.0,78,0.00,CLR,,0.00,0.0,WeatherDisplay:10.37,2014-01-21 12:42:00,
2014-01-21 06:47:00,2.9,-2.4,30.29,NNW,342,8.0,12.0,78,0.00,CLR,,0.00,0.0,WeatherDisplay:10.37,2014-01-21 12:47:00,
2014-01-21 06:52:00,2.9,-2.4,30.29,NNW,338,5.8,10.4,78,0.00,CLR,,0.00,0.0,WeatherDisplay:10.37,2014-01-21 12:52:00,
2014-01-21 06:57:00,2.8,-2.5,30.29,NNW,346,7.7,11.5,78,0.00,CLR,,0.00,0.0,WeatherDisplay:10.37,2014-01-21 12:57:00,
2014-01-21 07:02:00,2.8,-2.5,30.29,NNW,332,8.5,13.0,78,0.00,CLR,,0.00,0.0,WeatherDisplay:10.37,2014-01-21 13:02:00,
2014-01-21 07:07:00,2.7,-2.6,30.29,NNW,340,5.9,8.1,78,0.00,CLR,,0.00,0.0,WeatherDisplay:10.37,2014-01-21 13:07:00,
2014-01-21 07:12:00,2.5,-2.8,30.30,NNW,336,5.1,11.5,78,0.00,CLR,,0.00,0.0,WeatherDisplay:10.37,2014-01-21 13:12:00,
2014-01-21 07:17:00,2.4,-2.6,30.30,NW,324,6.7,11.5,79,0.00,CLR,,0.00,5.0,WeatherDisplay:10.37,2014-01-21 13:17:00,
2014-01-21 07:22:00,2.4,-2.6,30.30,NW,325,7.2,13.8,79,0.00,CLR,,0.00,9.0,WeatherDisplay:10.37,2014-01-21 13:22:00,
2014-01-21 07:27:00,2.3,-2.7,30.31,North,5,6.6,8.1,79,0.00,CLR,,0.00,11.0,WeatherDisplay:10.37,2014-01-21 13:27:00,
2014-01-21 07:32:00,2.3,-2.7,30.31,NNW,348,8.4,13.8,79,0.00,CLR,,0.00,12.0,WeatherDisplay:10.37,2014-01-21 13:32:00,
2014-01-21 07:37:00,2.3,-2.7,30.31,North,351,6.8,11.5,79,0.00,CLR,,0.00,14.0,WeatherDisplay:10.37,2014-01-21 13:37:00,
2014-01-21 07:42:00,2.3,-2.7,30.32,North,360,6.0,11.5,79,0.00,CLR,,0.00,18.0,WeatherDisplay:10.37,2014-01-21 13:42:00,
2014-01-21 07:47:00,2.4,-2.6,30.32,NNW,340,6.2,12.0,79,0.00,CLR,,0.00,19.0,WeatherDisplay:10.37,2014-01-21 13:47:00,
2014-01-21 07:52:00,2.5,-2.5,30.32,North,355,6.3,11.5,79,0.00,CLR,,0.00,21.0,WeatherDisplay:10.37,2014-01-21 13:52:00,
2014-01-21 07:57:00,2.6,-2.4,30.31,NW,323,7.7,13.8,79,0.00,CLR,,0.00,23.0,WeatherDisplay:10.37,2014-01-21 13:57:00,
2014-01-21 08:02:00,2.6,-2.7,30.31,NW,309,6.2,8.1,78,0.00,CLR,,0.00,35.0,WeatherDisplay:10.37,2014-01-21 14:02:00,
2014-01-21 08:07:00,2.7,-2.6,30.32,NNW,343,4.0,6.9,78,0.00,CLR,,0.00,32.0,WeatherDisplay:10.37,2014-01-21 14:07:00,
2014-01-21 08:12:00,2.7,-2.6,30.32,NW,325,8.3,11.5,78,0.00,CLR,,0.00,35.0,WeatherDisplay:10.37,2014-01-21 14:12:00,
2014-01-21 08:17:00,2.8,-2.5,30.32,NNW,346,3.8,5.0,78,0.00,CLR,,0.00,28.0,WeatherDisplay:10.37,2014-01-21 14:17:00,
2014-01-21 08:22:00,2.9,-2.7,30.33,NW,324,6.9,11.5,77,0.00,CLR,,0.00,44.0,WeatherDisplay:10.37,2014-01-21 14:22:00,
2014-01-21 08:27:00,2.9,-3.0,30.33,North,351,8.5,16.1,76,0.00,CLR,,0.00,56.0,WeatherDisplay:10.37,2014-01-21 14:27:00,
2014-01-21 08:32:00,3.1,-2.8,30.33,North,355,9.4,17.3,76,0.00,CLR,,0.00,46.0,WeatherDisplay:10.37,2014-01-21 14:32:00,
2014-01-21 08:37:00,3.2,-2.7,30.33,NNE,15,7.3,11.5,76,0.00,CLR,,0.00,84.0,WeatherDisplay:10.37,2014-01-21 14:37:00,
2014-01-21 08:42:00,3.3,-2.6,30.33,North,5,7.8,12.7,76,0.00,CLR,,0.00,104.0,WeatherDisplay:10.37,2014-01-21 14:42:00,
2014-01-21 08:47:00,3.6,-2.3,30.33,NNW,339,7.8,11.0,76,0.00,CLR,,0.00,163.0,WeatherDisplay:10.37,2014-01-21 14:47:00,
2014-01-21 08:52:00,3.6,-2.6,30.34,NNW,336,7.8,15.0,75,0.00,CLR,,0.00,199.0,WeatherDisplay:10.37,2014-01-21 14:52:00,
2014-01-21 08:57:00,3.5,-2.9,30.34,NNW,329,9.8,16.1,74,0.00,CLR,,0.00,132.0,WeatherDisplay:10.37,2014-01-21 14:57:00,
2014-01-21 09:02:00,3.6,-2.6,30.34,NNW,339,9.5,11.5,75,0.00,CLR,,0.00,121.0,WeatherDisplay:10.37,2014-01-21 15:02:00,
2014-01-21 09:07:00,3.9,-2.3,30.34,NNW,346,8.1,12.7,75,0.00,CLR,,0.00,199.0,WeatherDisplay:10.37,2014-01-21 15:07:00,
2014-01-21 09:12:00,4.1,-2.4,30.34,NNW,346,9.9,16.1,74,0.00,CLR,,0.00,171.0,WeatherDisplay:10.37,2014-01-21 15:12:00,
2014-01-21 09:17:00,4.0,-2.4,30.34,NNW,335,9.4,16.1,74,0.00,CLR,,0.00,218.0,WeatherDisplay:10.37,2014-01-21 15:17:00,
2014-01-21 09:22:00,4.2,-2.3,30.34,North,9,8.1,12.7,74,0.00,CLR,,0.00,315.0,WeatherDisplay:10.37,2014-01-21 15:22:00,
2014-01-21 09:27:00,4.6,-1.9,30.34,North,360,9.2,13.8,74,0.00,CLR,,0.00,325.0,WeatherDisplay:10.37,2014-01-21 15:27:00,
2014-01-21 09:32:00,4.8,-2.0,30.34,NNW,327,10.4,12.7,73,0.00,CLR,,0.00,311.0,WeatherDisplay:10.37,2014-01-21 15:32:00,
2014-01-21 09:37:00,4.7,-2.3,30.34,NNW,339,7.5,12.0,72,0.00,CLR,,0.00,346.0,WeatherDisplay:10.37,2014-01-21 15:37:00,
2014-01-21 09:42:00,4.9,-1.9,30.33,North,350,8.2,11.5,73,0.00,CLR,,0.00,359.0,WeatherDisplay:10.37,2014-01-21 15:42:00,
2014-01-21 09:47:00,5.0,-2.1,30.33,NNW,344,10.9,13.8,72,0.00,CLR,,0.00,295.0,WeatherDisplay:10.37,2014-01-21 15:47:00,
2014-01-21 09:52:00,5.3,-1.8,30.34,NNW,331,10.0,12.7,72,0.00,CLR,,0.00,308.0,WeatherDisplay:10.37,2014-01-21 15:52:00,
2014-01-21 09:57:00,5.2,-1.9,30.33,NW,311,8.5,11.5,72,0.00,CLR,,0.00,336.0,WeatherDisplay:10.37,2014-01-21 15:57:00,
2014-01-21 10:02:00,5.5,-1.6,30.34,NW,325,7.3,10.4,72,0.00,CLR,,0.00,279.0,WeatherDisplay:10.37,2014-01-21 16:02:00,
2014-01-21 10:07:00,5.5,-1.6,30.34,North,360,7.2,10.4,72,0.00,CLR,,0.00,274.0,WeatherDisplay:10.37,2014-01-21 16:07:00,
2014-01-21 10:12:00,5.6,-1.8,30.33,NNE,14,6.8,9.2,71,0.00,CLR,,0.00,287.0,WeatherDisplay:10.37,2014-01-21 16:12:00,
2014-01-21 10:17:00,5.8,-1.6,30.34,NNW,337,8.0,10.4,71,0.00,CLR,,0.00,267.0,WeatherDisplay:10.37,2014-01-21 16:17:00,
2014-01-21 10:22:00,6.1,-1.0,30.34,NNW,331,6.7,8.1,72,0.00,CLR,,0.00,195.0,WeatherDisplay:10.37,2014-01-21 16:22:00,
2014-01-21 10:27:00,6.2,-0.9,30.34,NW,323,8.6,11.5,72,0.00,CLR,,0.00,165.0,WeatherDisplay:10.37,2014-01-21 16:27:00,
2014-01-21 10:32:00,6.3,-1.1,30.34,NW,321,6.8,11.5,71,0.00,CLR,,0.00,272.0,WeatherDisplay:10.37,2014-01-21 16:32:00,
2014-01-21 10:37:00,6.4,-1.6,30.34,NNW,334,7.2,12.0,69,0.00,CLR,,0.00,341.0,WeatherDisplay:10.37,2014-01-21 16:37:00,
2014-01-21 10:42:00,6.5,-1.8,30.34,NNW,340,7.6,11.5,68,0.00,CLR,,0.00,455.0,WeatherDisplay:10.37,2014-01-21 16:42:00,
2014-01-21 10:47:00,6.8,-0.9,30.34,NW,308,7.9,11.5,70,0.00,CLR,,0.00,439.0,WeatherDisplay:10.37,2014-01-21 16:47:00,
2014-01-21 10:52:00,6.8,-0.9,30.34,WNW,302,6.8,11.5,70,0.00,CLR,,0.00,469.0,WeatherDisplay:10.37,2014-01-21 16:52:00,
2014-01-21 10:57:00,6.9,-0.8,30.34,NNW,341,7.2,11.5,70,0.00,CLR,,0.00,475.0,WeatherDisplay:10.37,2014-01-21 16:57:00,
2014-01-21 11:02:00,6.9,-0.8,30.34,NW,306,7.8,11.5,70,0.00,CLR,,0.00,480.0,WeatherDisplay:10.37,2014-01-21 17:02:00,
2014-01-21 11:07:00,7.1,-0.9,30.34,NW,317,9.8,12.7,69,0.00,CLR,,0.00,483.0,WeatherDisplay:10.37,2014-01-21 17:07:00,
2014-01-21 11:12:00,7.4,-0.6,30.34,NNW,327,9.2,15.0,69,0.00,CLR,,0.00,489.0,WeatherDisplay:10.37,2014-01-21 17:12:00,
2014-01-21 11:17:00,7.2,-1.2,30.34,NW,311,6.5,11.5,68,0.00,CLR,,0.00,490.0,WeatherDisplay:10.37,2014-01-21 17:17:00,
2014-01-21 11:22:00,7.2,-1.2,30.34,NNW,336,6.4,9.0,68,0.00,CLR,,0.00,494.0,WeatherDisplay:10.37,2014-01-21 17:22:00,
2014-01-21 11:27:00,7.6,-0.8,30.33,NNW,338,6.3,9.2,68,0.00,CLR,,0.00,497.0,WeatherDisplay:10.37,2014-01-21 17:27:00,
2014-01-21 11:32:00,7.5,-0.9,30.33,NNW,327,8.7,11.5,68,0.00,CLR,,0.00,499.0,WeatherDisplay:10.37,2014-01-21 17:32:00,
2014-01-21 11:37:00,7.6,-0.8,30.33,NW,320,8.4,14.0,68,0.00,CLR,,0.00,503.0,WeatherDisplay:10.37,2014-01-21 17:37:00,
2014-01-21 11:42:00,7.2,-1.2,30.33,NNW,338,10.7,12.7,68,0.00,CLR,,0.00,506.0,WeatherDisplay:10.37,2014-01-21 17:42:00,
2014-01-21 11:47:00,7.1,-0.9,30.33,NW,319,9.9,13.0,69,0.00,CLR,,0.00,506.0,WeatherDisplay:10.37,2014-01-21 17:47:00,
2014-01-21 11:52:00,7.1,-1.2,30.33,WNW,300,10.4,13.0,68,0.00,CLR,,0.00,508.0,WeatherDisplay:10.37,2014-01-21 17:52:00,
2014-01-21 11:57:00,7.3,-0.7,30.33,NNW,342,11.6,15.0,69,0.00,CLR,,0.00,506.0,WeatherDisplay:10.37,2014-01-21 17:57:00,
2014-01-21 12:02:00,7.6,-0.8,30.33,NNW,342,9.6,13.0,68,0.00,CLR,,0.00,506.0,WeatherDisplay:10.37,2014-01-21 18:02:00,
2014-01-21 12:07:00,8.1,-0.6,30.33,WNW,302,7.9,11.5,67,0.00,CLR,,0.00,506.0,WeatherDisplay:10.37,2014-01-21 18:07:00,
2014-01-21 12:12:00,8.0,-0.4,30.33,NW,322,7.4,12.7,68,0.00,CLR,,0.00,506.0,WeatherDisplay:10.37,2014-01-21 18:12:00,
2014-01-21 12:17:00,8.0,-0.4,30.33,NW,311,9.4,11.5,68,0.00,CLR,,0.00,504.0,WeatherDisplay:10.37,2014-01-21 18:17:00,
2014-01-21 12:22:00,7.8,-0.6,30.33,NW,307,11.2,12.7,68,0.00,CLR,,0.00,504.0,WeatherDisplay:10.37,2014-01-21 18:22:00,
2014-01-21 12:27:00,8.0,-0.1,30.33,NW,321,8.1,11.5,69,0.00,CLR,,0.00,501.0,WeatherDisplay:10.37,2014-01-21 18:27:00,
2014-01-21 12:32:00,8.2,0.1,30.32,NW,311,8.0,12.7,69,0.00,CLR,,0.00,497.0,WeatherDisplay:10.37,2014-01-21 18:32:00,
2014-01-21 12:37:00,7.9,-0.5,30.32,NW,311,6.7,10.4,68,0.00,CLR,,0.00,496.0,WeatherDisplay:10.37,2014-01-21 18:37:00,
2014-01-21 12:42:00,8.2,0.1,30.32,North,355,5.8,8.0,69,0.00,CLR,,0.00,492.0,WeatherDisplay:10.37,2014-01-21 18:42:00,
2014-01-21 12:47:00,8.9,0.5,30.31,NW,312,7.5,8.1,68,0.00,CLR,,0.00,490.0,WeatherDisplay:10.37,2014-01-21 18:47:00,
2014-01-21 12:52:00,8.8,0.4,30.31,North,349,6.0,10.4,68,0.00,CLR,,0.00,485.0,WeatherDisplay:10.37,2014-01-21 18:52:00,
2014-01-21 12:57:00,8.8,0.4,30.31,NW,319,5.0,7.0,68,0.00,CLR,,0.00,482.0,WeatherDisplay:10.37,2014-01-21 18:57:00,
2014-01-21 13:02:00,8.9,0.5,30.31,WNW,296,7.1,11.5,68,0.00,CLR,,0.00,476.0,WeatherDisplay:10.37,2014-01-21 19:02:00,
2014-01-21 13:07:00,8.8,0.1,30.31,NNW,337,5.8,12.7,67,0.00,CLR,,0.00,471.0,WeatherDisplay:10.37,2014-01-21 19:07:00,
2014-01-21 13:12:00,8.8,0.1,30.31,WNW,298,9.7,11.5,67,0.00,CLR,,0.00,466.0,WeatherDisplay:10.37,2014-01-21 19:12:00,
2014-01-21 13:17:00,8.7,-0.3,30.31,NW,323,5.5,9.2,66,0.00,CLR,,0.00,459.0,WeatherDisplay:10.37,2014-01-21 19:17:00,
2014-01-21 13:22:00,9.0,-0.1,30.31,NNW,341,7.3,10.4,66,0.00,CLR,,0.00,454.0,WeatherDisplay:10.37,2014-01-21 19:22:00,
2014-01-21 13:27:00,9.2,-0.2,30.30,North,355,9.2,10.4,65,0.00,CLR,,0.00,446.0,WeatherDisplay:10.37,2014-01-21 19:27:00,
2014-01-21 13:32:00,9.5,0.7,30.30,WNW,287,7.5,11.5,67,0.00,CLR,,0.00,439.0,WeatherDisplay:10.37,2014-01-21 19:32:00,
2014-01-21 13:37:00,9.3,0.2,30.31,NW,308,8.4,13.0,66,0.00,CLR,,0.00,432.0,WeatherDisplay:10.37,2014-01-21 19:37:00,
2014-01-21 13:42:00,9.1,-0.3,30.30,NW,320,10.3,13.8,65,0.00,CLR,,0.00,425.0,WeatherDisplay:10.37,2014-01-21 19:42:00,
2014-01-21 13:47:00,9.5,0.4,30.30,NW,309,7.5,11.5,66,0.00,CLR,,0.00,415.0,WeatherDisplay:10.37,2014-01-21 19:47:00,
2014-01-21 13:52:00,9.9,0.8,30.30,NW,309,8.4,11.5,66,0.00,CLR,,0.00,408.0,WeatherDisplay:10.37,2014-01-21 19:52:00,
2014-01-21 13:57:00,9.5,0.4,30.30,NW,323,7.7,11.5,66,0.00,CLR,,0.00,399.0,WeatherDisplay:10.37,2014-01-21 19:57:00,
2014-01-21 14:02:00,9.3,-0.1,30.30,WNW,302,10.0,14.0,65,0.00,CLR,,0.00,390.0,WeatherDisplay:10.37,2014-01-21 20:02:00,
2014-01-21 14:07:00,9.4,0.6,30.30,NW,315,10.0,16.1,67,0.00,CLR,,0.00,380.0,WeatherDisplay:10.37,2014-01-21 20:07:00,
2014-01-21 14:12:00,9.2,0.1,30.30,NW,316,6.2,9.2,66,0.00,CLR,,0.00,371.0,WeatherDisplay:10.37,2014-01-21 20:12:00,
2014-01-21 14:17:00,9.3,0.2,30.30,NW,324,11.1,16.1,66,0.00,CLR,,0.00,360.0,WeatherDisplay:10.37,2014-01-21 20:17:00,
2014-01-21 14:22:00,9.2,0.1,30.30,NW,309,8.3,14.0,66,0.00,CLR,,0.00,341.0,WeatherDisplay:10.37,2014-01-21 20:22:00,
2014-01-21 14:27:00,9.4,0.6,30.30,NW,306,8.9,12.7,67,0.00,CLR,,0.00,341.0,WeatherDisplay:10.37,2014-01-21 20:27:00,
2014-01-21 14:32:00,9.1,0.4,30.30,NW,318,9.5,13.8,67,0.00,CLR,,0.00,306.0,WeatherDisplay:10.37,2014-01-21 20:32:00,
2014-01-21 14:37:00,9.0,0.3,30.30,WNW,298,12.3,17.3,67,0.00,CLR,,0.00,276.0,WeatherDisplay:10.37,2014-01-21 20:37:00,
2014-01-21 14:42:00,8.7,-0.3,30.30,NNW,336,10.8,11.5,66,0.00,CLR,,0.00,281.0,WeatherDisplay:10.37,2014-01-21 20:42:00,
2014-01-21 14:47:00,8.9,-0.2,30.30,NNW,338,9.2,13.8,66,0.00,CLR,,0.00,260.0,WeatherDisplay:10.37,2014-01-21 20:47:00,
2014-01-21 14:52:00,8.9,-0.2,30.30,WNW,303,6.9,9.2,66,0.00,CLR,,0.00,237.0,WeatherDisplay:10.37,2014-01-21 20:52:00,
2014-01-21 14:57:00,8.5,-0.5,30.30,NW,310,11.5,13.0,66,0.00,CLR,,0.00,207.0,WeatherDisplay:10.37,2014-01-21 20:57:00,
2014-01-21 15:02:00,8.3,-0.4,30.30,NW,313,9.2,12.7,67,0.00,CLR,,0.00,195.0,WeatherDisplay:10.37,2014-01-21 21:02:00,
2014-01-21 15:07:00,8.3,-0.4,30.30,NNW,338,9.1,12.0,67,0.00,CLR,,0.00,172.0,WeatherDisplay:10.37,2014-01-21 21:07:00,
2014-01-21 15:12:00,8.4,-0.3,30.30,NW,313,11.7,13.8,67,0.00,CLR,,0.00,174.0,WeatherDisplay:10.37,2014-01-21 21:12:00,
2014-01-21 15:17:00,8.2,-0.8,30.31,NW,319,10.4,13.8,66,0.00,CLR,,0.00,190.0,WeatherDisplay:10.37,2014-01-21 21:17:00,
2014-01-21 15:22:00,8.3,-0.4,30.31,NW,306,11.6,15.0,67,0.00,CLR,,0.00,179.0,WeatherDisplay:10.37,2014-01-21 21:22:00,
2014-01-21 15:27:00,8.1,-0.6,30.31,NW,323,9.9,13.8,67,0.00,CLR,,0.00,156.0,WeatherDisplay:10.37,2014-01-21 21:27:00,
2014-01-21 15:32:00,8.1,0.0,30.31,WNW,296,7.6,12.0,69,0.00,CLR,,0.00,109.0,WeatherDisplay:10.37,2014-01-21 21:32:00,
2014-01-21 15:37:00,7.9,-0.2,30.31,WNW,297,9.0,13.8,69,0.00,CLR,,0.00,90.0,WeatherDisplay:10.37,2014-01-21 21:37:00,
2014-01-21 15:42:00,7.8,-0.3,30.31,WNW,297,8.7,11.5,69,0.00,CLR,,0.00,86.0,WeatherDisplay:10.37,2014-01-21 21:42:00,
2014-01-21 15:47:00,7.6,-0.1,30.31,NNW,346,8.0,11.5,70,0.00,CLR,,0.00,70.0,WeatherDisplay:10.37,2014-01-21 21:47:00,
2014-01-21 15:52:00,7.4,-0.3,30.31,NW,311,7.3,11.5,70,0.00,CLR,,0.00,56.0,WeatherDisplay:10.37,2014-01-21 21:52:00,
2014-01-21 15:57:00,7.1,-0.6,30.31,NW,310,5.7,8.0,70,0.00,CLR,,0.00,49.0,WeatherDisplay:10.37,2014-01-21 21:57:00,
2014-01-21 16:02:00,6.8,-0.6,30.31,NW,318,4.1,5.8,71,0.00,CLR,,0.00,47.0,WeatherDisplay:10.37,2014-01-21 22:02:00,
2014-01-21 16:07:00,6.6,-0.8,30.31,NW,309,6.5,8.1,71,0.00,CLR,,0.00,46.0,WeatherDisplay:10.37,2014-01-21 22:07:00,
2014-01-21 16:12:00,6.4,-1.0,30.31,NNW,327,5.1,6.9,71,0.00,CLR,,0.00,42.0,WeatherDisplay:10.37,2014-01-21 22:12:00,
2014-01-21 16:17:00,6.3,-1.1,30.31,NW,306,5.2,8.1,71,0.00,CLR,,0.00,39.0,WeatherDisplay:10.37,2014-01-21 22:17:00,
2014-01-21 16:22:00,6.0,-1.4,30.31,WNW,299,6.3,8.1,71,0.00,CLR,,0.00,35.0,WeatherDisplay:10.37,2014-01-21 22:22:00,
2014-01-21 16:27:00,6.0,-1.1,30.31,NW,313,4.1,5.8,72,0.00,CLR,,0.00,32.0,WeatherDisplay:10.37,2014-01-21 22:27:00,
2014-01-21 16:32:00,5.9,-1.2,30.31,WNW,294,4.2,5.8,72,0.00,CLR,,0.00,25.0,WeatherDisplay:10.37,2014-01-21 22:32:00,
2014-01-21 16:37:00,5.7,-1.4,30.31,NW,312,5.3,6.9,72,0.00,CLR,,0.00,21.0,WeatherDisplay:10.37,2014-01-21 22:37:00,
2014-01-21 16:42:00,5.6,-1.5,30.31,NW,307,3.1,4.0,72,0.00,CLR,,0.00,16.0,WeatherDisplay:10.37,2014-01-21 22:42:00,
2014-01-21 16:47:00,5.5,-1.6,30.31,WNW,298,4.7,6.9,72,0.00,CLR,,0.00,12.0,WeatherDisplay:10.37,2014-01-21 22:47:00,
2014-01-21 16:52:00,5.3,-1.5,30.31,WNW,296,4.0,5.8,73,0.00,CLR,,0.00,7.0,WeatherDisplay:10.37,2014-01-21 22:52:00,
2014-01-21 16:57:00,5.0,-1.8,30.31,NW,309,3.5,5.8,73,0.00,CLR,,0.00,0.0,WeatherDisplay:10.37,2014-01-21 22:57:00,
2014-01-21 17:02:00,5.0,-1.8,30.31,NW,325,3.5,5.8,73,0.00,CLR,,0.00,0.0,WeatherDisplay:10.37,2014-01-21 23:02:00,
2014-01-21 17:07:00,4.9,-1.9,30.31,NW,319,3.9,4.6,73,0.00,CLR,,0.00,0.0,WeatherDisplay:10.37,2014-01-21 23:07:00,
2014-01-21 17:12:00,4.6,-2.2,30.31,NW,306,3.7,5.8,73,0.00,CLR,,0.00,0.0,WeatherDisplay:10.37,2014-01-21 23:12:00,
2014-01-21 17:17:00,4.5,-2.0,30.31,NNW,327,3.6,4.0,74,0.00,CLR,,0.00,0.0,WeatherDisplay:10.37,2014-01-21 23:17:00,
2014-01-21 17:22:00,4.5,-2.0,30.31,NW,305,3.9,5.8,74,0.00,CLR,,0.00,0.0,WeatherDisplay:10.37,2014-01-21 23:22:00,
2014-01-21 17:27:00,4.4,-2.1,30.31,NW,306,3.1,4.6,74,0.00,CLR,,0.00,0.0,WeatherDisplay:10.37,2014-01-21 23:27:00,
2014-01-21 17:32:00,4.3,-2.2,30.30,NW,308,2.8,3.5,74,0.00,CLR,,0.00,0.0,WeatherDisplay:10.37,2014-01-21 23:32:00,
2014-01-21 17:37:00,4.2,-2.3,30.31,WNW,291,4.1,5.0,74,0.00,CLR,,0.00,0.0,WeatherDisplay:10.37,2014-01-21 23:37:00,
2014-01-21 17:42:00,4.2,-2.3,30.31,NW,316,4.2,5.8,74,0.00,CLR,,0.00,0.0,WeatherDisplay:10.37,2014-01-21 23:42:00,
2014-01-21 17:47:00,4.2,-2.3,30.31,WNW,301,4.7,6.0,74,0.00,CLR,,0.00,0.0,WeatherDisplay:10.37,2014-01-21 23:47:00,
2014-01-21 17:52:00,4.1,-2.1,30.31,NW,315,3.5,4.6,75,0.00,CLR,,0.00,0.0,WeatherDisplay:10.37,2014-01-21 23:52:00,
2014-01-21 17:57:00,4.0,-2.2,30.31,NW,325,3.6,5.8,75,0.00,CLR,,0.00,0.0,WeatherDisplay:10.37,2014-01-21 23:57:00,
2014-01-21 18:02:00,4.0,-2.2,30.31,NNW,327,2.9,5.0,75,0.00,CLR,,0.00,0.0,WeatherDisplay:10.37,2014-01-22 00:02:00,
2014-01-21 18:07:00,3.9,-2.3,30.31,NW,318,2.7,3.5,75,0.00,CLR,,0.00,0.0,WeatherDisplay:10.37,2014-01-22 00:07:00,
2014-01-21 18:12:00,3.7,-2.5,30.31,NW,312,2.4,3.5,75,0.00,CLR,,0.00,0.0,WeatherDisplay:10.37,2014-01-22 00:12:00,
2014-01-21 18:17:00,3.6,-2.6,30.31,WNW,303,3.4,4.6,75,0.00,CLR,,0.00,0.0,WeatherDisplay:10.37,2014-01-22 00:17:00,
2014-01-21 18:22:00,3.4,-2.7,30.30,WNW,284,2.6,6.0,75,0.00,CLR,,0.00,0.0,WeatherDisplay:10.37,2014-01-22 00:22:00,
2014-01-21 18:27:00,3.4,-2.7,30.30,NW,319,3.6,4.6,75,0.00,CLR,,0.00,0.0,WeatherDisplay:10.37,2014-01-22 00:27:00,
2014-01-21 18:32:00,3.4,-2.5,30.30,WNW,302,1.8,3.5,76,0.00,CLR,,0.00,0.0,WeatherDisplay:10.37,2014-01-22 00:32:00,
2014-01-21 18:37:00,3.1,-3.0,30.30,WNW,302,2.1,3.5,75,0.00,CLR,,0.00,0.0,WeatherDisplay:10.37,2014-01-22 00:37:00,
2014-01-21 18:42:00,2.8,-3.1,30.30,WNW,302,1.4,3.5,76,0.00,CLR,,0.00,0.0,WeatherDisplay:10.37,2014-01-22 00:42:00,
2014-01-21 18:47:00,2.6,-3.0,30.30,WNW,302,2.0,2.3,77,0.00,CLR,,0.00,0.0,WeatherDisplay:10.37,2014-01-22 00:47:00,
2014-01-21 18:52:00,2.4,-3.2,30.30,WNW,302,1.6,3.5,77,0.00,CLR,,0.00,0.0,WeatherDisplay:10.37,2014-01-22 00:52:00,
2014-01-21 18:57:00,2.3,-3.3,30.29,WNW,302,2.1,3.5,77,0.00,CLR,,0.00,0.0,WeatherDisplay:10.37,2014-01-22 00:57:00,
2014-01-21 19:02:00,2.0,-3.6,30.29,WNW,302,0.9,3.5,77,0.00,CLR,,0.00,0.0,WeatherDisplay:10.37,2014-01-22 01:02:00,
2014-01-21 19:07:00,1.9,-3.4,30.29,WNW,302,1.2,2.3,78,0.00,CLR,,0.00,0.0,WeatherDisplay:10.37,2014-01-22 01:07:00,
2014-01-21 19:12:00,1.7,-3.6,30.29,WNW,302,2.2,3.5,78,0.00,CLR,,0.00,0.0,WeatherDisplay:10.37,2014-01-22 01:12:00,
2014-01-21 19:17:00,1.6,-3.7,30.29,WNW,302,2.1,3.5,78,0.00,CLR,,0.00,0.0,WeatherDisplay:10.37,2014-01-22 01:17:00,
2014-01-21 19:22:00,1.4,-3.9,30.29,WNW,302,2.9,3.5,78,0.00,CLR,,0.00,0.0,WeatherDisplay:10.37,2014-01-22 01:22:00,
2014-01-21 19:27:00,1.1,-3.9,30.29,WNW,302,2.3,3.5,79,0.00,CLR,,0.00,0.0,WeatherDisplay:10.37,2014-01-22 01:27:00,
2014-01-21 19:32:00,1.0,-4.0,30.30,WNW,301,2.0,2.3,79,0.00,CLR,,0.00,0.0,WeatherDisplay:10.37,2014-01-22 01:32:00,
2014-01-21 19:37:00,0.7,-4.3,30.30,WNW,301,2.0,2.3,79,0.00,CLR,,0.00,0.0,WeatherDisplay:10.37,2014-01-22 01:37:00,
2014-01-21 19:42:00,0.2,-4.8,30.30,WNW,301,2.0,3.5,79,0.00,CLR,,0.00,0.0,WeatherDisplay:10.37,2014-01-22 01:42:00,
2014-01-21 19:47:00,-0.2,-5.2,30.30,WNW,300,2.0,3.5,79,0.00,CLR,,0.00,0.0,WeatherDisplay:10.37,2014-01-22 01:47:00,
2014-01-21 19:52:00,-0.6,-5.3,30.30,WNW,300,4.2,4.6,80,0.00,CLR,,0.00,0.0,WeatherDisplay:10.37,2014-01-22 01:52:00,
2014-01-21 19:57:00,0.0,-4.4,30.29,West,278,4.0,4.6,81,0.00,CLR,,0.00,0.0,WeatherDisplay:10.37,2014-01-22 01:57:00,
2014-01-21 20:02:00,0.6,-3.9,30.29,West,278,1.8,3.5,81,0.00,CLR,,0.00,0.0,WeatherDisplay:10.37,2014-01-22 02:02:00,
2014-01-21 20:07:00,0.4,-4.3,30.29,West,278,2.3,3.5,80,0.00,CLR,,0.00,0.0,WeatherDisplay:10.37,2014-01-22 02:07:00,
2014-01-21 20:12:00,0.2,-4.5,30.29,West,278,2.0,3.5,80,0.00,CLR,,0.00,0.0,WeatherDisplay:10.37,2014-01-22 02:12:00,
2014-01-21 20:17:00,-0.2,-4.9,30.28,West,278,0.5,2.3,80,0.00,CLR,,0.00,0.0,WeatherDisplay:10.37,2014-01-22 02:17:00,
2014-01-21 20:22:00,-0.5,-4.9,30.28,West,278,1.4,2.3,81,0.00,CLR,,0.00,0.0,WeatherDisplay:10.37,2014-01-22 02:22:00,
2014-01-21 20:27:00,-1.0,-5.4,30.28,West,278,1.9,3.5,81,0.00,CLR,,0.00,0.0,WeatherDisplay:10.37,2014-01-22 02:27:00,
2014-01-21 20:32:00,-1.4,-5.8,30.28,West,278,1.5,2.3,81,0.00,CLR,,0.00,0.0,WeatherDisplay:10.37,2014-01-22 02:32:00,
2014-01-21 20:37:00,-1.8,-6.0,30.28,West,278,2.1,3.5,82,0.00,CLR,,0.00,0.0,WeatherDisplay:10.37,2014-01-22 02:37:00,
2014-01-21 20:42:00,-2.2,-6.3,30.28,West,278,0.9,2.3,82,0.00,CLR,,0.00,0.0,WeatherDisplay:10.37,2014-01-22 02:42:00,
2014-01-21 20:47:00,-2.4,-6.3,30.28,West,278,1.2,2.3,83,0.00,CLR,,0.00,0.0,WeatherDisplay:10.37,2014-01-22 02:47:00,
2014-01-21 20:52:00,-2.6,-6.5,30.28,West,278,1.1,2.0,83,0.00,CLR,,0.00,0.0,WeatherDisplay:10.37,2014-01-22 02:52:00,
2014-01-21 20:57:00,-2.8,-6.4,30.28,West,278,2.2,3.5,84,0.00,CLR,,0.00,0.0,WeatherDisplay:10.37,2014-01-22 02:57:00,
2014-01-21 21:02:00,-3.0,-6.6,30.29,West,278,2.0,3.5,84,0.00,CLR,,0.00,0.0,WeatherDisplay:10.37,2014-01-22 03:02:00,
2014-01-21 21:07:00,-3.1,-6.7,30.29,West,278,1.9,3.5,84,0.00,CLR,,0.00,0.0,WeatherDisplay:10.37,2014-01-22 03:07:00,
2014-01-21 21:12:00,-3.4,-7.0,30.29,West,278,2.6,3.5,84,0.00,CLR,,0.00,0.0,WeatherDisplay:10.37,2014-01-22 03:12:00,
2014-01-21 21:17:00,-3.5,-6.9,30.28,West,278,1.7,3.5,85,0.00,CLR,,0.00,0.0,WeatherDisplay:10.37,2014-01-22 03:17:00,
2014-01-21 21:22:00,-3.8,-7.2,30.28,West,278,2.0,3.5,85,0.00,CLR,,0.00,0.0,WeatherDisplay:10.37,2014-01-22 03:22:00,
2014-01-21 21:27:00,-3.6,-7.0,30.28,West,278,1.8,3.5,85,0.00,CLR,,0.00,0.0,WeatherDisplay:10.37,2014-01-22 03:27:00,
2014-01-21 21:32:00,-3.8,-7.2,30.28,West,278,1.5,2.3,85,0.00,CLR,,0.00,0.0,WeatherDisplay:10.37,2014-01-22 03:32:00,
2014-01-21 21:37:00,-3.9,-7.3,30.28,West,278,1.9,3.0,85,0.00,CLR,,0.00,0.0,WeatherDisplay:10.37,2014-01-22 03:37:00,
2014-01-21 21:42:00,-3.7,-6.8,30.28,West,278,1.2,2.3,86,0.00,CLR,,0.00,0.0,WeatherDisplay:10.37,2014-01-22 03:42:00,
2014-01-21 21:47:00,-4.4,-7.8,30.28,West,278,1.9,2.3,85,0.00,CLR,,0.00,0.0,WeatherDisplay:10.37,2014-01-22 03:47:00,
2014-01-21 21:52:00,-4.7,-8.1,30.27,West,278,1.7,2.3,85,0.00,CLR,,0.00,0.0,WeatherDisplay:10.37,2014-01-22 03:52:00,
2014-01-21 21:57:00,-4.9,-8.3,30.28,West,278,2.9,3.5,85,0.00,CLR,,0.00,0.0,WeatherDisplay:10.37,2014-01-22 03:57:00,
2014-01-21 22:02:00,-4.8,-8.2,30.28,West,278,2.1,3.0,85,0.00,CLR,,0.00,0.0,WeatherDisplay:10.37,2014-01-22 04:02:00,
2014-01-21 22:07:00,-4.6,-7.7,30.28,West,278,1.6,2.3,86,0.00,CLR,,0.00,0.0,WeatherDisplay:10.37,2014-01-22 04:07:00,
2014-01-21 22:12:00,-4.3,-7.4,30.28,West,278,2.4,3.5,86,0.00,CLR,,0.00,0.0,WeatherDisplay:10.37,2014-01-22 04:12:00,
2014-01-21 22:17:00,-4.4,-7.5,30.28,West,278,2.6,3.5,86,0.00,CLR,,0.00,0.0,WeatherDisplay:10.37,2014-01-22 04:17:00,
2014-01-21 22:22:00,-4.6,-8.0,30.28,West,278,2.1,3.5,85,0.00,CLR,,0.00,0.0,WeatherDisplay:10.37,2014-01-22 04:22:00,
2014-01-21 22:27:00,-4.9,-8.3,30.28,West,278,2.6,3.5,85,0.00,CLR,,0.00,0.0,WeatherDisplay:10.37,2014-01-22 04:27:00,
2014-01-21 22:32:00,-5.1,-8.5,30.28,West,278,2.1,3.5,85,0.00,CLR,,0.00,0.0,WeatherDisplay:10.37,2014-01-22 04:32:00,
2014-01-21 22:37:00,-5.1,-8.5,30.28,West,278,2.0,3.5,85,0.00,CLR,,0.00,0.0,WeatherDisplay:10.37,2014-01-22 04:37:00,
2014-01-21 22:42:00,-5.5,-8.8,30.28,West,278,2.3,3.5,85,0.00,CLR,,0.00,0.0,WeatherDisplay:10.37,2014-01-22 04:42:00,
2014-01-21 22:47:00,-5.8,-9.1,30.28,West,278,2.4,3.5,85,0.00,CLR,,0.00,0.0,WeatherDisplay:10.37,2014-01-22 04:47:00,
2014-01-21 22:52:00,-5.7,-9.0,30.28,West,278,2.3,3.5,85,0.00,CLR,,0.00,0.0,WeatherDisplay:10.37,2014-01-22 04:52:00,
2014-01-21 22:57:00,-5.9,-9.2,30.28,West,278,2.8,3.5,85,0.00,CLR,,0.00,0.0,WeatherDisplay:10.37,2014-01-22 04:57:00,
2014-01-21 23:01:00,-5.9,-9.2,30.29,West,278,2.3,3.5,85,0.00,CLR,,0.00,0.0,WeatherDisplay:10.37,2014-01-22 05:01:00,
2014-01-21 23:02:00,-5.9,-9.2,30.29,West,278,2.4,3.5,85,0.00,CLR,,0.00,0.0,WeatherDisplay:10.37,2014-01-22 05:02:00,
2014-01-21 23:03:00,-6.0,-9.3,30.29,West,278,2.8,3.5,85,0.00,CLR,,0.00,0.0,WeatherDisplay:10.37,2014-01-22 05:03:00,
2014-01-21 23:08:00,-5.9,-9.2,30.29,West,278,2.0,3.5,85,0.00,CLR,,0.00,0.0,WeatherDisplay:10.37,2014-01-22 05:08:00,
2014-01-21 23:13:00,-6.3,-9.9,30.29,West,278,1.8,3.5,84,0.00,CLR,,0.00,0.0,WeatherDisplay:10.37,2014-01-22 05:13:00,
2014-01-21 23:18:00,-6.4,-9.7,30.29,West,278,0.7,1.2,85,0.00,CLR,,0.00,0.0,WeatherDisplay:10.37,2014-01-22 05:18:00,
2014-01-21 23:23:00,-7.1,-10.7,30.29,West,278,1.0,1.2,84,0.00,CLR,,0.00,0.0,WeatherDisplay:10.37,2014-01-22 05:23:00,
2014-01-21 23:28:00,-7.3,-10.6,30.29,West,278,1.0,1.2,85,0.00,CLR,,0.00,0.0,WeatherDisplay:10.37,2014-01-22 05:28:00,
2014-01-21 23:33:00,-7.4,-10.7,30.29,West,278,2.4,3.5,85,0.00,CLR,,0.00,0.0,WeatherDisplay:10.37,2014-01-22 05:33:00,
2014-01-21 23:38:00,-7.3,-10.6,30.28,West,278,1.6,2.3,85,0.00,CLR,,0.00,0.0,WeatherDisplay:10.37,2014-01-22 05:38:00,
2014-01-21 23:43:00,-6.8,-10.1,30.29,West,278,1.9,2.3,85,0.00,CLR,,0.00,0.0,WeatherDisplay:10.37,2014-01-22 05:43:00,
2014-01-21 23:48:00,-6.4,-9.7,30.28,West,278,1.5,2.3,85,0.00,CLR,,0.00,0.0,WeatherDisplay:10.37,2014-01-22 05:48:00,
2014-01-21 23:53:00,-6.6,-9.9,30.28,West,278,3.0,3.5,85,0.00,CLR,,0.00,0.0,WeatherDisplay:10.37,2014-01-22 05:53:00,
2014-01-21 23:58:00,-6.2,-9.5,30.27,West,278,2.1,3.5,85,0.00,CLR,,0.00,0.0,WeatherDisplay:10.37,2014-01-22 05:58:00,